NCAR-RAP Real-Time Weather Data

Output produced by METARs form (17 September 2019  17:17 UTC)
found at http://weather.rap.ucar.edu/surface/
 
KSTC 171653Z 10009KT 9SM FEW110 22/21 A2991 RMK AO2 RAB1557E35 SLP131 P0000 T02220206
KSTC 171553Z 10008G16KT 10SM FEW055 BKN100 21/19 A2993 RMK AO2 RAB21E41 SLP138 P0001 T02060194
KSTC 171518Z 09006KT 10SM FEW026 SCT080 BKN100 20/18 A2994 RMK AO2 LTG DSNT NE T02000183
KSTC 171453Z 09007KT 10SM BKN023 OVC030 20/19 A2994 RMK AO2 LTG DSNT N-E RAE07 TSE1357 SLP144 P0000 60090 T02000189 58007
KSTC 171430Z 08006KT 10SM OVC023 20/18 A2995 RMK AO2 LTG DSNT NW-E RAE07 TSE1357 P0000 T02000183
KSTC 171420Z 08006KT 10SM VCTS BKN023 BKN028 OVC035 19/18 A2995 RMK AO2 LTG DSNT ALQDS RAE07 TSE1357 P0000 T01940183
KSTC 171411Z 08007KT 10SM VCTS SCT024 OVC033 19/18 A2995 RMK AO2 LTG DSNT ALQDS RAE07 TSE1357 P0000 T01940183
KSTC 171357Z 08005KT 10SM VCTS -RA BKN029 BKN036 OVC044 19/18 A2996 RMK AO2 LTG DSNT ALQDS TSE57 P0000 T01940183
KSTC 171353Z 09007KT 10SM -TSRA FEW026 BKN033 OVC044 19/18 A2996 RMK AO2 LTG DSNT ALQDS SLP151 P0088 T01940183
KSTC 171344Z 07006KT 3SM -TSRA BR FEW024 BKN032 OVC041 19/18 A2996 RMK AO2 LTG DSNT ALQDS P0087 T01940178
KSTC 171338Z 02008KT 1 1/2SM +TSRA BR BKN030 OVC039 19/18 A2996 RMK AO2 LTG DSNT ALQDS P0085 T01940183 $
KSTC 171319Z VRB04KT 2SM TSRA BR FEW006 BKN020 OVC040 20/19 A2998 RMK AO2 LTG DSNT ALQDS P0057 T02000189 $
KSTC 171311Z 33007G19KT 3/4SM +TSRA BR FEW009 BKN016 OVC029 20/19 A2998 RMK AO2 LTG DSNT ALQDS P0044 T02000194 $
KSTC 171308Z 31006G19KT 3/4SM +TSRA BR BKN014 OVC023 20/19 A2999 RMK AO2 LTG DSNT ALQDS P0031 T02000194 $
KSTC 171303Z 31013KT 1 3/4SM +TSRA BR FEW011 BKN017 OVC029 21/19 A2999 RMK AO2 LTG DSNT ALQDS PRESRR P0010 T02060194 $
KSTC 171253Z 28010G15KT 7SM -TSRA FEW007 BKN015 OVC019 21/20 A2998 RMK AO2 LTG DSNT SW-N RAB20 TSB22 SLP155 TS OHD MOV E P0002 T02110200 $
KSTC 171227Z 00000KT 10SM -TSRA BKN019 BKN070 22/20 A2997 RMK AO2 LTG DSNT SW-N RAB20 TSB22 TS OHD MOV E P0000 T02170200 $
KSTC 171153Z 07003KT 10SM VCTS FEW047 SCT055 22/20 A2996 RMK AO2 LTG DSNT SW-NW SLP149 T02170200 10239 20217 50006 $
KSTC 171053Z AUTO 18004KT 10SM BKN100 22/21 A2996 RMK AO2 LTG DSNT W SLP146 T02220206
KSTC 170953Z AUTO 15007KT 10SM FEW100 23/21 A2995 RMK AO2 SLP142 T02280206
KSTC 170853Z AUTO 15005KT 9SM CLR 23/21 A2995 RMK AO2 SLP142 T02280211 51002
KSTC 170753Z AUTO 15008KT 9SM CLR 23/21 A2994 RMK AO2 SLP140 T02330211
KSTC 170653Z AUTO 16007KT 9SM CLR 23/21 A2995 RMK AO2 SLP142 T02330211
KSTC 170553Z AUTO 17008KT 9SM CLR 23/21 A2994 RMK AO2 SLP140 T02330211 10261 20228 402940144 58001
KSTC 170453Z AUTO 16009KT 9SM CLR 23/21 A2995 RMK AO2 SLP143 T02330211
KSTC 170353Z 16008KT 10SM CLR 24/22 A2995 RMK AO2 SLP143 T02390217
KSTC 170253Z 15007KT 10SM CLR 23/21 A2994 RMK AO2 SLP143 T02330211 53001
KSTC 170053Z 14007KT 10SM CLR 24/22 A2994 RMK AO2 SLP143 T02390217
KSTC 162353Z 15009KT 10SM CLR 26/21 A2994 RMK AO2 SLP143 T02610211 10294 20261 55001
KSTC 162253Z 16015KT 10SM CLR 28/22 A2994 RMK AO2 SLP140 T02830217
KSTC 162153Z 16011KT 10SM CLR 29/21 A2994 RMK AO2 PK WND 17027/2056 SLP141 T02890211